Time;durP1;ratioP1;P1;durP2;ratioP2;P2;SDS_P1;SDS_P2;PMS_P1;PMS_P2;Temp;Humidity;BMP_temperature;BMP_pressure;BME280_temperature;BME280_humidity;BME280_pressure;Samples;Min_cycle;Max_cycle;Signal;HPM_P1;HPM_P2
2021/11/22 00:01:22;;;;;;;10.87;3.27;;;7.00;98.80;;;;;;5076776;28;20241;-86
2021/11/22 00:03:47;;;;;;;11.43;3.10;;;7.20;98.90;;;;;;5063309;28;20267;-86
2021/11/22 00:06:14;;;;;;;10.07;3.80;;;7.10;99.10;;;;;;5054785;28;20220;-86
2021/11/22 00:08:39;;;;;;;10.93;3.37;;;7.10;99.30;;;;;;5056678;28;20200;-86
2021/11/22 00:11:05;;;;;;;8.70;2.90;;;7.00;99.70;;;;;;5057753;28;20681;-87
2021/11/22 00:13:31;;;;;;;13.23;3.47;;;7.00;99.80;;;;;;5071799;28;20267;-86
2021/11/22 00:15:57;;;;;;;9.93;2.90;;;7.00;99.90;;;;;;5073413;28;20636;-86
2021/11/22 00:18:23;;;;;;;6.87;2.20;;;7.00;99.90;;;;;;5073812;28;20168;-86
2021/11/22 00:20:49;;;;;;;9.27;2.90;;;6.90;99.90;;;;;;5072923;28;20180;-86
2021/11/22 00:23:15;;;;;;;10.93;3.63;;;7.00;99.90;;;;;;5058941;28;20177;-86
2021/11/22 00:25:41;;;;;;;10.53;2.90;;;7.00;99.90;;;;;;5054209;28;20177;-85
2021/11/22 00:28:06;;;;;;;8.63;3.10;;;7.20;99.90;;;;;;5051576;28;20516;-85
2021/11/22 00:30:32;;;;;;;10.57;2.87;;;6.90;99.90;;;;;;5052123;28;20295;-84
2021/11/22 00:33:00;;;;;;;10.00;2.77;;;7.10;99.90;;;;;;5061685;28;20183;-85
2021/11/22 00:35:32;;;;;;;9.07;2.87;;;6.90;99.90;;;;;;5074315;28;20226;-84
2021/11/22 00:37:58;;;;;;;12.30;2.60;;;6.90;99.90;;;;;;5074430;28;20614;-83
2021/11/22 00:40:25;;;;;;;7.37;2.87;;;7.10;99.90;;;;;;5074456;28;20199;-83
2021/11/22 00:42:50;;;;;;;9.90;2.40;;;6.90;99.90;;;;;;5092250;28;20239;-85
2021/11/22 00:45:17;;;;;;;12.97;2.93;;;6.90;99.90;;;;;;5091967;28;20180;-84
2021/11/22 00:47:43;;;;;;;11.60;2.70;;;6.90;99.90;;;;;;5093503;28;20236;-85
2021/11/22 00:50:10;;;;;;;10.03;2.80;;;6.90;99.90;;;;;;5091916;28;20186;-85
2021/11/22 00:52:36;;;;;;;5.17;2.77;;;6.90;99.90;;;;;;5070231;28;20189;-86
2021/11/22 00:55:02;;;;;;;6.20;2.40;;;6.80;99.90;;;;;;5068434;28;20200;-84
2021/11/22 00:57:28;;;;;;;11.43;2.33;;;6.90;99.90;;;;;;5056632;28;20173;-85
2021/11/22 00:59:55;;;;;;;5.30;2.07;;;6.90;99.90;;;;;;5053333;28;20183;-84
2021/11/22 01:02:22;;;;;;;8.87;3.10;;;6.90;99.90;;;;;;5064652;28;20307;-84
2021/11/22 01:04:48;;;;;;;4.63;2.20;;;6.80;99.90;;;;;;5074680;28;20601;-83
2021/11/22 01:07:17;;;;;;;9.37;2.30;;;6.90;99.90;;;;;;5072854;28;20199;-85
2021/11/22 01:09:43;;;;;;;5.40;1.83;;;6.80;99.90;;;;;;5072477;28;20179;-83
2021/11/22 01:12:09;;;;;;;8.67;2.33;;;6.90;99.90;;;;;;5063017;28;20278;-85
2021/11/22 01:14:36;;;;;;;8.77;2.50;;;6.80;99.90;;;;;;5054528;28;20169;-85
2021/11/22 01:17:03;;;;;;;10.60;2.50;;;6.70;99.90;;;;;;5054084;28;20185;-85
2021/11/22 01:19:29;;;;;;;6.50;2.70;;;6.70;99.90;;;;;;5058008;28;20585;-84
2021/11/22 01:21:55;;;;;;;10.40;2.50;;;6.70;99.90;;;;;;5066772;28;20172;-83
2021/11/22 01:24:20;;;;;;;7.33;2.40;;;6.70;99.90;;;;;;5081335;28;20196;-83
2021/11/22 01:26:46;;;;;;;9.80;2.37;;;6.70;99.90;;;;;;5072684;28;20186;-84
2021/11/22 01:29:12;;;;;;;7.63;2.50;;;6.60;99.90;;;;;;5071709;28;20172;-83
2021/11/22 01:31:37;;;;;;;8.43;2.30;;;6.60;99.90;;;;;;5067399;28;20224;-83
2021/11/22 01:34:03;;;;;;;9.10;2.77;;;6.60;99.90;;;;;;5052363;28;20181;-84
2021/11/22 01:36:29;;;;;;;9.43;2.93;;;6.70;99.90;;;;;;5051918;28;20259;-84
2021/11/22 01:38:55;;;;;;;10.03;2.30;;;6.50;99.90;;;;;;5054226;28;20655;-84
2021/11/22 01:41:21;;;;;;;5.63;2.43;;;6.60;99.90;;;;;;5054985;28;20520;-84
2021/11/22 01:43:47;;;;;;;6.87;2.30;;;6.40;99.90;;;;;;5037759;28;20169;-84
2021/11/22 01:46:18;;;;;;;9.03;4.17;;;6.50;99.90;;;;;;5037228;28;20268;-83
2021/11/22 01:48:44;;;;;;;7.00;2.30;;;6.50;99.90;;;;;;5048328;28;20264;-84
2021/11/22 01:51:10;;;;;;;10.60;2.60;;;6.40;99.90;;;;;;5042465;28;20307;-84
2021/11/22 01:53:36;;;;;;;11.60;3.07;;;6.50;99.90;;;;;;5079017;28;20189;-83
2021/11/22 01:56:02;;;;;;;8.50;2.37;;;6.40;99.90;;;;;;5077745;28;20187;-84
2021/11/22 01:58:27;;;;;;;8.63;2.20;;;6.40;99.90;;;;;;5081300;28;20172;-83
2021/11/22 02:00:55;;;;;;;5.53;2.13;;;6.60;99.90;;;;;;5086266;28;20260;-84
2021/11/22 02:03:21;;;;;;;8.37;2.67;;;6.60;99.90;;;;;;5071486;28;20276;-83
2021/11/22 02:05:51;;;;;;;8.43;2.77;;;6.40;99.90;;;;;;5069295;28;20204;-83
2021/11/22 02:08:19;;;;;;;6.23;2.30;;;6.50;99.90;;;;;;5067112;28;20176;-84
2021/11/22 02:10:46;;;;;;;6.63;2.23;;;6.40;99.90;;;;;;5071123;28;20234;-82
2021/11/22 02:13:12;;;;;;;8.47;2.70;;;6.30;99.90;;;;;;5085893;28;20172;-83
2021/11/22 02:15:39;;;;;;;6.93;2.70;;;6.40;99.90;;;;;;5079625;28;20715;-83
2021/11/22 02:18:05;;;;;;;8.03;2.90;;;6.30;99.90;;;;;;5080309;28;20179;-85
2021/11/22 02:20:33;;;;;;;8.87;2.60;;;6.30;99.90;;;;;;5075980;28;20168;-86
2021/11/22 02:23:05;;;;;;;8.33;3.50;;;6.30;99.90;;;;;;5075203;28;20184;-85
2021/11/22 02:25:32;;;;;;;6.97;2.57;;;6.20;99.90;;;;;;5076067;28;20176;-84
2021/11/22 02:27:59;;;;;;;6.60;2.63;;;6.30;99.90;;;;;;5076263;28;20243;-83
2021/11/22 02:30:33;;;;;;;10.47;2.30;;;6.20;99.90;;;;;;5075325;28;20243;-85
2021/11/22 02:33:01;;;;;;;8.43;2.50;;;6.20;99.90;;;;;;5055797;28;20176;-84
2021/11/22 02:35:30;;;;;;;6.07;2.30;;;6.20;99.90;;;;;;5055442;28;20177;-85
2021/11/22 02:37:56;;;;;;;5.73;2.00;;;6.20;99.90;;;;;;5057621;28;20167;-85
2021/11/22 02:40:21;;;;;;;7.63;2.57;;;6.40;99.90;;;;;;5071940;28;20259;-84
2021/11/22 02:42:47;;;;;;;6.27;2.50;;;6.10;99.90;;;;;;5055273;28;20655;-83
2021/11/22 02:45:17;;;;;;;8.43;2.23;;;6.10;99.90;;;;;;5054529;28;20263;-83
2021/11/22 02:47:45;;;;;;;4.67;1.97;;;6.30;99.90;;;;;;5054600;28;20619;-86
2021/11/22 02:50:13;;;;;;;7.70;2.20;;;6.00;99.90;;;;;;5053891;28;20238;-84
2021/11/22 02:52:40;;;;;;;9.00;2.80;;;6.00;99.90;;;;;;5070217;28;20172;-84
2021/11/22 02:55:11;;;;;;;4.33;2.50;;;6.00;99.90;;;;;;5074422;28;20551;-84
2021/11/22 02:57:38;;;;;;;5.00;2.40;;;6.10;99.90;;;;;;5076496;28;20164;-84
2021/11/22 03:00:11;;;;;;;6.07;2.20;;;5.90;99.90;;;;;;5074447;28;20263;-85
2021/11/22 03:02:37;;;;;;;7.87;2.53;;;5.90;99.90;;;;;;5063826;28;20227;-85
2021/11/22 03:05:04;;;;;;;4.70;2.00;;;6.00;99.90;;;;;;5070068;28;20181;-84
2021/11/22 03:07:30;;;;;;;8.37;2.73;;;5.90;99.90;;;;;;5066032;28;20268;-85
2021/11/22 03:09:56;;;;;;;6.13;2.47;;;5.90;99.90;;;;;;5067429;28;20173;-84
2021/11/22 03:12:22;;;;;;;3.50;2.27;;;5.90;99.90;;;;;;5076906;28;20212;-87
2021/11/22 03:14:49;;;;;;;11.13;2.50;;;6.10;99.90;;;;;;5076423;28;20667;-86
2021/11/22 03:17:14;;;;;;;4.33;2.00;;;5.90;99.90;;;;;;5074422;28;20179;-85
2021/11/22 03:19:40;;;;;;;9.97;2.77;;;5.90;99.90;;;;;;5075312;28;20172;-84
2021/11/22 03:22:06;;;;;;;10.07;2.43;;;5.80;99.90;;;;;;5066512;28;20222;-85
2021/11/22 03:24:32;;;;;;;10.50;2.97;;;5.80;99.90;;;;;;5056433;28;20180;-85
2021/11/22 03:27:00;;;;;;;6.43;2.30;;;5.80;99.90;;;;;;5054516;28;20220;-85
2021/11/22 03:29:26;;;;;;;5.30;2.27;;;5.90;99.90;;;;;;5053082;28;20177;-84
2021/11/22 03:31:53;;;;;;;6.70;2.50;;;5.80;99.90;;;;;;5057148;28;20208;-85
2021/11/22 03:34:20;;;;;;;7.67;2.10;;;6.00;99.90;;;;;;5073668;28;20581;-84
2021/11/22 03:36:45;;;;;;;4.53;2.20;;;5.80;99.90;;;;;;5073720;28;20172;-85
2021/11/22 03:39:21;;;;;;;4.90;2.37;;;5.80;99.90;;;;;;5073186;28;20179;-83
2021/11/22 03:41:48;;;;;;;4.10;2.23;;;5.70;99.90;;;;;;5056302;28;20168;-85
2021/11/22 03:44:16;;;;;;;4.33;1.90;;;5.70;99.90;;;;;;5053411;28;20230;-85
2021/11/22 03:46:49;;;;;;;6.93;2.60;;;5.70;99.90;;;;;;5053495;28;20176;-84
2021/11/22 03:49:15;;;;;;;8.13;2.30;;;5.70;99.90;;;;;;5054429;28;20625;-84
2021/11/22 03:51:41;;;;;;;5.33;2.13;;;5.70;99.90;;;;;;5068558;28;20211;-85
2021/11/22 03:54:07;;;;;;;5.80;2.60;;;5.80;99.90;;;;;;5072601;28;20628;-85
2021/11/22 03:56:33;;;;;;;9.87;2.57;;;5.70;99.90;;;;;;5074211;28;20230;-85
2021/11/22 03:59:00;;;;;;;8.50;2.60;;;5.70;99.90;;;;;;5073255;28;20169;-84
2021/11/22 04:01:25;;;;;;;5.70;2.37;;;5.80;99.90;;;;;;5071826;28;20628;-84
2021/11/22 04:03:51;;;;;;;6.90;2.50;;;5.70;99.90;;;;;;5076986;28;20172;-84
2021/11/22 04:06:17;;;;;;;4.17;2.20;;;5.70;99.90;;;;;;5080433;28;20202;-82
2021/11/22 04:08:43;;;;;;;6.07;2.53;;;5.70;99.90;;;;;;5086777;28;20176;-83
2021/11/22 04:11:09;;;;;;;3.90;1.90;;;5.70;99.90;;;;;;5068630;28;20207;-83
2021/11/22 04:13:35;;;;;;;5.17;2.27;;;5.70;99.90;;;;;;5070038;28;20253;-86
2021/11/22 04:16:02;;;;;;;6.27;2.10;;;5.60;99.90;;;;;;5074154;28;20534;-84
2021/11/22 04:18:29;;;;;;;8.33;2.27;;;5.60;99.90;;;;;;5074988;28;20199;-87
2021/11/22 04:20:55;;;;;;;7.40;1.90;;;5.60;99.90;;;;;;5073825;28;20249;-86
2021/11/22 04:23:21;;;;;;;6.10;1.70;;;5.60;99.90;;;;;;5075483;28;20620;-86
2021/11/22 04:25:47;;;;;;;4.87;1.70;;;5.60;99.90;;;;;;5073511;28;20674;-87
2021/11/22 04:28:12;;;;;;;4.93;2.47;;;5.60;99.90;;;;;;5073680;28;20172;-83
2021/11/22 04:30:39;;;;;;;4.73;2.13;;;5.60;99.90;;;;;;5066939;28;20211;-83
2021/11/22 04:33:06;;;;;;;6.73;2.03;;;5.60;99.90;;;;;;5054087;28;20177;-86
2021/11/22 04:35:32;;;;;;;4.47;1.77;;;5.60;99.90;;;;;;5052854;28;20251;-85
2021/11/22 04:37:58;;;;;;;6.70;1.73;;;5.70;99.90;;;;;;5052837;28;20268;-84
2021/11/22 04:40:24;;;;;;;3.40;1.80;;;5.60;99.90;;;;;;5053787;28;20201;-84
2021/11/22 04:42:51;;;;;;;4.67;1.87;;;5.60;99.90;;;;;;5053104;28;20231;-84
2021/11/22 04:45:19;;;;;;;5.30;1.90;;;5.60;99.90;;;;;;5053485;28;20200;-84
2021/11/22 04:47:46;;;;;;;3.17;1.83;;;5.50;99.90;;;;;;5052087;28;20632;-85
2021/11/22 04:50:12;;;;;;;11.03;2.17;;;5.70;99.90;;;;;;5052177;28;20177;-84
2021/11/22 04:52:38;;;;;;;4.57;2.20;;;5.50;99.90;;;;;;5051603;28;20187;-83
2021/11/22 04:55:05;;;;;;;7.60;2.17;;;5.50;99.90;;;;;;5053089;28;20173;-83
2021/11/22 04:57:31;;;;;;;4.73;2.20;;;5.50;99.90;;;;;;5051465;28;20291;-84
2021/11/22 04:59:57;;;;;;;3.83;1.60;;;5.50;99.90;;;;;;5053622;28;20303;-86
2021/11/22 05:02:22;;;;;;;3.70;1.80;;;5.60;99.90;;;;;;5058719;28;20214;-83
2021/11/22 05:04:49;;;;;;;6.93;2.30;;;5.50;99.90;;;;;;5073216;28;20215;-84
2021/11/22 05:07:15;;;;;;;3.97;1.83;;;5.50;99.90;;;;;;5071830;28;20211;-84
2021/11/22 05:09:45;;;;;;;6.20;2.00;;;5.50;99.90;;;;;;5072218;28;20291;-84
2021/11/22 05:12:11;;;;;;;4.63;1.77;;;5.60;99.90;;;;;;5056367;28;20244;-85
2021/11/22 05:14:37;;;;;;;3.37;1.90;;;5.50;99.90;;;;;;5054334;28;20680;-84
2021/11/22 05:17:02;;;;;;;4.70;1.80;;;5.50;99.90;;;;;;5056261;28;20185;-84
2021/11/22 05:19:30;;;;;;;2.77;1.67;;;5.60;99.90;;;;;;5057124;28;20192;-84
2021/11/22 05:22:00;;;;;;;3.60;2.10;;;5.50;99.90;;;;;;5059208;28;20177;-83
2021/11/22 05:24:30;;;;;;;5.70;2.20;;;5.50;99.90;;;;;;5076987;28;20667;-84
2021/11/22 05:26:56;;;;;;;7.80;2.63;;;5.70;99.90;;;;;;5077249;28;20192;-83
2021/11/22 05:29:22;;;;;;;7.87;2.77;;;5.50;99.90;;;;;;5076548;28;20187;-84
2021/11/22 05:31:48;;;;;;;5.17;2.00;;;5.50;99.90;;;;;;5075824;28;20211;-84
2021/11/22 05:34:17;;;;;;;7.50;2.00;;;5.50;99.90;;;;;;5057395;28;20268;-83
2021/11/22 05:36:43;;;;;;;5.67;2.20;;;5.50;99.90;;;;;;5061293;28;20241;-83
2021/11/22 05:39:09;;;;;;;9.07;2.10;;;5.40;99.90;;;;;;5056454;28;20176;-83
2021/11/22 05:41:35;;;;;;;4.87;2.30;;;5.60;99.90;;;;;;5067133;28;20180;-83
2021/11/22 05:44:01;;;;;;;5.50;2.60;;;5.40;99.90;;;;;;5060973;28;20188;-84
2021/11/22 05:46:27;;;;;;;6.37;2.07;;;5.40;99.90;;;;;;5061124;28;20184;-83
2021/11/22 05:48:53;;;;;;;9.17;2.27;;;5.50;99.90;;;;;;5065047;28;20205;-84
2021/11/22 05:51:19;;;;;;;5.90;2.57;;;5.40;99.90;;;;;;5069135;28;20700;-83
2021/11/22 05:53:49;;;;;;;6.03;2.60;;;5.40;99.90;;;;;;5080410;28;20566;-84
2021/11/22 05:56:17;;;;;;;5.20;2.50;;;5.30;99.90;;;;;;5080832;28;20643;-84
2021/11/22 05:58:45;;;;;;;5.33;2.23;;;5.40;99.90;;;;;;5074511;28;20192;-83
2021/11/22 06:01:11;;;;;;;6.30;2.60;;;5.60;99.90;;;;;;5065211;28;20254;-84
2021/11/22 06:03:37;;;;;;;4.87;2.40;;;5.50;99.90;;;;;;5061860;28;20181;-85
2021/11/22 06:06:03;;;;;;;4.23;2.23;;;5.50;99.90;;;;;;5057530;28;20169;-84
2021/11/22 06:08:29;;;;;;;8.00;2.53;;;5.70;99.90;;;;;;5064137;28;20187;-84
2021/11/22 06:10:55;;;;;;;5.37;2.50;;;5.50;99.90;;;;;;5076169;28;20214;-85
2021/11/22 06:13:22;;;;;;;5.80;3.17;;;5.50;99.90;;;;;;5066071;28;20173;-83
2021/11/22 06:15:48;;;;;;;5.77;2.87;;;5.50;99.90;;;;;;5055518;28;20215;-85
2021/11/22 06:18:15;;;;;;;6.83;3.00;;;5.60;99.90;;;;;;5064861;28;20172;-82
2021/11/22 06:20:42;;;;;;;3.93;2.50;;;5.50;99.90;;;;;;5060420;28;20196;-83
2021/11/22 06:23:08;;;;;;;5.67;2.87;;;5.80;99.90;;;;;;5059475;28;20181;-83
2021/11/22 06:25:35;;;;;;;4.93;2.43;;;5.60;99.90;;;;;;5058432;28;20177;-83
2021/11/22 06:28:02;;;;;;;6.07;2.50;;;5.60;99.90;;;;;;5055804;28;20177;-85
2021/11/22 06:30:28;;;;;;;5.13;2.43;;;5.60;99.90;;;;;;5055731;28;20193;-83
2021/11/22 06:32:55;;;;;;;4.97;2.73;;;5.50;99.90;;;;;;5055972;28;20192;-83
2021/11/22 06:35:22;;;;;;;8.83;3.30;;;5.70;99.90;;;;;;5073104;28;20182;-83
2021/11/22 06:37:50;;;;;;;7.93;3.40;;;5.70;99.90;;;;;;5057057;28;20187;-85
2021/11/22 06:40:16;;;;;;;6.10;2.87;;;5.50;99.90;;;;;;5057540;28;20185;-83
2021/11/22 06:42:42;;;;;;;6.30;2.80;;;5.60;99.90;;;;;;5055913;28;20189;-83
2021/11/22 06:45:08;;;;;;;5.90;3.53;;;5.50;99.90;;;;;;5055640;28;20249;-84
2021/11/22 06:47:35;;;;;;;8.90;3.70;;;5.50;99.90;;;;;;5055622;28;20177;-82
2021/11/22 06:50:01;;;;;;;12.27;4.03;;;5.60;99.90;;;;;;5056724;28;20633;-82
2021/11/22 06:52:27;;;;;;;8.27;4.80;;;5.60;99.90;;;;;;5056837;28;20255;-82
2021/11/22 06:54:55;;;;;;;6.77;4.10;;;5.60;99.90;;;;;;5059336;28;20185;-82
2021/11/22 06:57:23;;;;;;;6.57;3.73;;;5.60;99.90;;;;;;5066182;28;20177;-84
2021/11/22 06:59:49;;;;;;;7.10;3.53;;;5.50;99.90;;;;;;5083632;28;20168;-84
2021/11/22 07:02:17;;;;;;;7.57;3.50;;;5.60;99.90;;;;;;5075061;28;20232;-86
2021/11/22 07:04:45;;;;;;;6.20;3.73;;;5.60;99.90;;;;;;5075352;28;20228;-84
2021/11/22 07:07:12;;;;;;;7.43;4.43;;;5.60;99.90;;;;;;5063204;28;20629;-83
2021/11/22 07:09:38;;;;;;;8.23;3.90;;;5.70;99.90;;;;;;5056396;28;20230;-84
2021/11/22 07:12:05;;;;;;;6.93;3.63;;;5.60;99.90;;;;;;5053487;28;20212;-83
2021/11/22 07:14:32;;;;;;;8.80;3.87;;;5.60;99.90;;;;;;5054452;28;20625;-85
2021/11/22 07:16:59;;;;;;;9.13;5.03;;;5.60;99.90;;;;;;5047506;28;20181;-85
2021/11/22 07:19:27;;;;;;;11.20;4.87;;;5.50;99.90;;;;;;5055654;28;20173;-86
2021/11/22 07:21:53;;;;;;;6.60;4.47;;;5.60;99.90;;;;;;5054907;28;20181;-85
2021/11/22 07:24:20;;;;;;;9.50;5.13;;;5.50;99.90;;;;;;5054873;28;20181;-85
2021/11/22 07:26:46;;;;;;;8.70;3.70;;;5.60;99.90;;;;;;5054936;28;20215;-83
2021/11/22 07:29:15;;;;;;;7.07;4.43;;;5.50;99.90;;;;;;5055153;28;20686;-85
2021/11/22 07:31:41;;;;;;;8.40;4.37;;;5.50;99.90;;;;;;5048398;28;20213;-85
2021/11/22 07:34:07;;;;;;;7.27;4.40;;;5.50;99.90;;;;;;5056940;28;20177;-84
2021/11/22 07:36:33;;;;;;;9.67;4.97;;;5.50;99.90;;;;;;5054983;28;20675;-82
2021/11/22 07:38:59;;;;;;;8.13;5.53;;;5.60;99.90;;;;;;5055058;28;20641;-84
2021/11/22 07:41:24;;;;;;;7.33;4.67;;;5.60;99.90;;;;;;5050481;28;20177;-81
2021/11/22 07:43:50;;;;;;;10.03;5.07;;;5.60;99.90;;;;;;5057800;28;20208;-84
2021/11/22 07:46:16;;;;;;;9.03;5.63;;;5.60;99.90;;;;;;5059471;28;20184;-83
2021/11/22 07:48:42;;;;;;;12.70;5.33;;;5.50;99.90;;;;;;5062526;28;20173;-85
2021/11/22 07:51:08;;;;;;;10.47;5.77;;;5.60;99.90;;;;;;5062303;28;20288;-83
2021/11/22 07:53:35;;;;;;;9.80;4.47;;;5.40;99.90;;;;;;5044128;28;20535;-82
2021/11/22 07:56:01;;;;;;;9.10;5.53;;;5.50;99.90;;;;;;5045148;28;20189;-81
2021/11/22 07:58:27;;;;;;;7.50;5.30;;;5.40;99.90;;;;;;5038524;28;20223;-84
2021/11/22 08:00:53;;;;;;;8.93;5.47;;;5.40;99.90;;;;;;5042294;28;20653;-84
2021/11/22 08:03:19;;;;;;;9.03;5.03;;;5.40;99.90;;;;;;5051248;28;20380;-84
2021/11/22 08:05:47;;;;;;;9.37;4.97;;;5.40;99.90;;;;;;5065093;28;20659;-84
2021/11/22 08:08:13;;;;;;;9.50;5.43;;;5.40;99.90;;;;;;5068142;28;20169;-82
2021/11/22 08:10:38;;;;;;;7.60;5.10;;;5.40;99.90;;;;;;5069440;28;20211;-83
2021/11/22 08:13:08;;;;;;;8.90;4.53;;;5.40;99.90;;;;;;5067268;28;20276;-82
2021/11/22 08:15:36;;;;;;;6.67;5.23;;;5.40;99.90;;;;;;5059397;28;20176;-82
2021/11/22 08:18:05;;;;;;;10.93;5.93;;;5.40;99.90;;;;;;5065273;28;20177;-85
2021/11/22 08:20:34;;;;;;;8.50;5.53;;;5.40;99.90;;;;;;5056448;28;20181;-83
2021/11/22 08:23:00;;;;;;;9.20;5.03;;;5.40;99.90;;;;;;5055539;28;20181;-83
2021/11/22 08:25:32;;;;;;;8.50;5.83;;;5.50;99.90;;;;;;5054516;28;20185;-82
2021/11/22 08:27:58;;;;;;;10.50;5.83;;;5.40;99.90;;;;;;5060780;28;20196;-83
2021/11/22 08:30:28;;;;;;;10.23;5.87;;;5.50;99.90;;;;;;5065578;28;20200;-85
2021/11/22 08:32:56;;;;;;;9.90;6.10;;;5.40;99.90;;;;;;5049925;28;20181;-83
2021/11/22 08:35:22;;;;;;;7.50;5.33;;;5.50;99.90;;;;;;5037093;28;20166;-83
2021/11/22 08:37:48;;;;;;;7.93;5.80;;;5.50;99.90;;;;;;5058160;28;20532;-82
2021/11/22 08:40:18;;;;;;;9.70;5.70;;;5.40;99.90;;;;;;5063238;28;20659;-83
2021/11/22 08:42:44;;;;;;;8.53;5.03;;;5.40;99.90;;;;;;5058032;28;20180;-85
2021/11/22 08:45:10;;;;;;;9.83;5.33;;;5.40;99.90;;;;;;5047168;28;20381;-83
2021/11/22 08:47:36;;;;;;;8.03;5.73;;;5.40;99.90;;;;;;5057842;28;20542;-85
2021/11/22 08:50:05;;;;;;;9.73;6.17;;;5.40;99.90;;;;;;5058686;28;20165;-83
2021/11/22 08:52:31;;;;;;;10.90;5.60;;;5.50;99.90;;;;;;5052030;28;20778;-83
2021/11/22 08:54:57;;;;;;;9.10;7.07;;;5.40;99.90;;;;;;5052898;28;20183;-84
2021/11/22 08:57:23;;;;;;;10.53;7.27;;;5.60;99.90;;;;;;5045079;28;20177;-85
2021/11/22 08:59:49;;;;;;;7.87;6.00;;;5.50;99.90;;;;;;5054423;28;20203;-85
2021/11/22 09:02:15;;;;;;;9.57;6.67;;;5.60;99.90;;;;;;5036394;28;20212;-87
2021/11/22 09:04:43;;;;;;;8.93;6.07;;;5.60;99.90;;;;;;5043159;28;20203;-86
2021/11/22 09:07:08;;;;;;;10.37;6.03;;;5.70;99.90;;;;;;5053250;28;20177;-86
2021/11/22 09:09:35;;;;;;;8.87;5.53;;;5.60;99.90;;;;;;5053223;28;20184;-87
2021/11/22 09:12:01;;;;;;;8.53;5.17;;;5.50;99.90;;;;;;5052772;28;20216;-84
2021/11/22 09:14:27;;;;;;;9.90;5.13;;;5.50;99.90;;;;;;5052612;28;20185;-86
2021/11/22 09:16:53;;;;;;;7.10;4.93;;;5.60;99.90;;;;;;5053560;28;20188;-84
2021/11/22 09:19:18;;;;;;;9.10;3.70;;;5.50;99.90;;;;;;5053035;28;20173;-85
2021/11/22 09:21:44;;;;;;;10.57;5.60;;;5.50;99.90;;;;;;5052616;28;20176;-85
2021/11/22 09:24:10;;;;;;;9.17;4.70;;;5.50;99.90;;;;;;5052985;28;20188;-83
2021/11/22 09:26:36;;;;;;;11.67;5.97;;;5.50;99.90;;;;;;5052106;28;20185;-84
2021/11/22 09:29:04;;;;;;;7.33;4.47;;;5.50;99.90;;;;;;5052424;28;20177;-84
2021/11/22 09:31:30;;;;;;;9.40;4.90;;;5.60;99.90;;;;;;5054007;28;20211;-86
2021/11/22 09:33:56;;;;;;;9.00;5.47;;;5.60;99.90;;;;;;5046655;28;20169;-85
2021/11/22 09:36:23;;;;;;;14.40;6.23;;;5.70;99.90;;;;;;5053774;28;20706;-84
2021/11/22 09:38:49;;;;;;;13.63;5.03;;;5.70;99.90;;;;;;5052796;28;20180;-86
2021/11/22 09:41:16;;;;;;;6.60;4.80;;;5.80;99.90;;;;;;5054774;28;20188;-85
2021/11/22 09:43:47;;;;;;;5.93;4.83;;;5.80;99.90;;;;;;5055788;28;20254;-86
2021/11/22 09:46:13;;;;;;;10.83;5.57;;;5.80;99.90;;;;;;5037265;28;20177;-82
2021/11/22 09:48:40;;;;;;;7.33;5.00;;;5.80;99.90;;;;;;5050172;28;20538;-85
2021/11/22 09:51:09;;;;;;;13.43;6.47;;;5.80;99.90;;;;;;5032095;28;20205;-85
2021/11/22 09:53:35;;;;;;;10.53;5.50;;;5.90;99.90;;;;;;5052802;28;20177;-84
2021/11/22 09:56:01;;;;;;;11.63;5.53;;;5.90;99.90;;;;;;5055239;28;20188;-85
2021/11/22 09:58:26;;;;;;;7.90;5.40;;;5.90;99.90;;;;;;5036924;28;20335;-85
2021/11/22 10:01:00;;;;;;;8.77;5.40;;;5.90;99.90;;;;;;5059463;28;20165;-84
2021/11/22 10:03:26;;;;;;;9.67;5.73;;;6.00;99.90;;;;;;5046214;28;20197;-83
2021/11/22 10:05:57;;;;;;;8.30;4.50;;;6.10;99.90;;;;;;5057768;28;20215;-85
2021/11/22 10:08:36;;;;;;;10.53;6.00;;;6.00;99.90;;;;;;5060672;28;20200;-84
2021/11/22 10:11:08;;;;;;;10.00;5.37;;;6.00;99.90;;;;;;5067438;28;20258;-85
2021/11/22 10:13:37;;;;;;;5.83;4.77;;;6.10;99.90;;;;;;5060354;28;20180;-85
2021/11/22 10:16:24;;;;;;;8.97;4.10;;;6.10;99.90;;;;;;5059964;28;20170;-83
2021/11/22 10:18:55;;;;;;;9.73;4.30;;;6.10;99.90;;;;;;5076141;28;20267;-83
2021/11/22 10:21:34;;;;;;;8.10;4.80;;;6.10;99.90;;;;;;5062142;28;20189;-86
2021/11/22 10:24:11;;;;;;;8.27;4.57;;;6.10;99.90;;;;;;5057787;28;20556;-85
2021/11/22 10:27:03;;;;;;;9.67;4.30;;;6.20;99.90;;;;;;5056306;28;20195;-85
2021/11/22 10:29:34;;;;;;;8.57;4.33;;;6.30;99.90;;;;;;5053371;28;20520;-84
2021/11/22 10:32:03;;;;;;;6.70;4.00;;;6.40;99.90;;;;;;5055405;28;20239;-83
2021/11/22 10:34:37;;;;;;;6.53;3.40;;;6.50;99.90;;;;;;5064063;28;20196;-82
2021/11/22 10:37:06;;;;;;;7.20;3.40;;;6.50;99.90;;;;;;5066344;28;20177;-84
2021/11/22 10:39:33;;;;;;;9.87;4.00;;;6.60;99.70;;;;;;5072815;28;20192;-83
2021/11/22 10:41:59;;;;;;;8.67;3.93;;;6.60;99.20;;;;;;5069100;28;20169;-84
2021/11/22 10:44:31;;;;;;;5.60;3.37;;;6.60;99.50;;;;;;5068256;28;20201;-84
2021/11/22 10:47:12;;;;;;;5.20;3.50;;;6.80;99.40;;;;;;5067980;28;20185;-84
2021/11/22 10:49:43;;;;;;;6.17;2.87;;;6.80;98.40;;;;;;5062961;28;20173;-83
2021/11/22 10:52:37;;;;;;;5.03;2.63;;;6.90;97.60;;;;;;5056624;28;20213;-85
2021/11/22 10:55:08;;;;;;;9.83;4.77;;;6.80;96.70;;;;;;5059852;28;20176;-86
2021/11/22 10:57:47;;;;;;;6.10;3.00;;;6.90;97.30;;;;;;5040591;28;20213;-84
2021/11/22 11:00:22;;;;;;;5.07;2.27;;;7.00;96.10;;;;;;5047831;28;20177;-84
2021/11/22 11:02:49;;;;;;;6.47;2.70;;;7.00;94.90;;;;;;5048167;28;20231;-84
2021/11/22 11:05:32;;;;;;;3.27;1.77;;;7.10;95.30;;;;;;5055262;28;20235;-85
2021/11/22 11:08:06;;;;;;;8.67;2.63;;;7.10;93.50;;;;;;5054952;28;20283;-84
2021/11/22 11:10:33;;;;;;;4.53;2.20;;;7.20;93.80;;;;;;5054241;28;20192;-85
2021/11/22 11:13:00;;;;;;;4.37;2.30;;;7.30;92.80;;;;;;5039821;28;20181;-84
2021/11/22 11:15:26;;;;;;;6.43;2.43;;;7.30;91.70;;;;;;5043241;28;20630;-86
2021/11/22 11:17:53;;;;;;;8.03;2.23;;;7.30;91.80;;;;;;5018451;28;20208;-85
2021/11/22 11:20:23;;;;;;;4.40;2.23;;;7.50;91.10;;;;;;5034325;28;20541;-85
2021/11/22 11:22:51;;;;;;;4.73;2.50;;;7.50;90.40;;;;;;5048114;28;20177;-86
2021/11/22 11:25:28;;;;;;;5.57;2.40;;;7.50;90.50;;;;;;5056160;28;20184;-85
2021/11/22 11:27:53;;;;;;;5.27;2.30;;;7.70;89.20;;;;;;5056031;28;20173;-84
2021/11/22 11:30:22;;;;;;;4.20;2.00;;;7.70;86.80;;;;;;5058521;28;20181;-85
2021/11/22 11:32:50;;;;;;;7.87;2.23;;;7.70;84.30;;;;;;5049359;28;20192;-84
2021/11/22 11:35:19;;;;;;;3.77;1.80;;;7.70;82.20;;;;;;5037337;28;20540;-85
2021/11/22 11:38:08;;;;;;;3.00;1.30;;;7.70;79.10;;;;;;5040769;28;20169;-84
2021/11/22 11:40:51;;;;;;;5.70;1.60;;;7.70;76.60;;;;;;5055224;28;20177;-85
2021/11/22 11:43:43;;;;;;;4.27;1.70;;;7.70;79.20;;;;;;5056330;28;20168;-85
2021/11/22 11:46:28;;;;;;;3.83;1.60;;;7.60;75.40;;;;;;5055845;28;20181;-84
2021/11/22 11:49:12;;;;;;;2.43;1.50;;;7.80;76.00;;;;;;5054806;28;20227;-83
2021/11/22 11:51:47;;;;;;;2.70;1.30;;;7.80;72.70;;;;;;5046855;28;20214;-84
2021/11/22 11:54:24;;;;;;;6.03;1.93;;;7.80;66.90;;;;;;5054587;28;20255;-84
2021/11/22 11:56:56;;;;;;;4.03;1.77;;;7.80;69.80;;;;;;5053934;28;20177;-84
2021/11/22 12:00:01;;;;;;;5.70;1.60;;;8.00;71.10;;;;;;5054618;28;20184;-83
2021/11/22 12:02:30;;;;;;;5.37;1.57;;;8.00;68.40;;;;;;5055210;28;20208;-83
2021/11/22 12:04:59;;;;;;;3.43;1.40;;;8.10;68.50;;;;;;5054156;28;20193;-83
2021/11/22 12:07:29;;;;;;;3.80;1.93;;;8.00;64.80;;;;;;5047895;28;20193;-84
2021/11/22 12:10:04;;;;;;;3.70;1.60;;;8.10;67.10;;;;;;5039214;28;20261;-83
2021/11/22 12:12:37;;;;;;;3.10;1.70;;;8.10;65.20;;;;;;5052062;28;20208;-82
2021/11/22 12:15:05;;;;;;;5.00;1.50;;;8.10;64.00;;;;;;5053721;28;20245;-85
2021/11/22 12:17:33;;;;;;;5.67;1.80;;;8.20;65.70;;;;;;5052307;28;20177;-82
2021/11/22 12:20:34;;;;;;;4.97;1.80;;;8.30;67.10;;;;;;5058971;28;20177;-82
2021/11/22 12:23:06;;;;;;;3.90;1.57;;;8.30;60.90;;;;;;5064319;28;20191;-81
2021/11/22 12:25:38;;;;;;;2.63;1.40;;;8.30;53.30;;;;;;5071351;28;20180;-81
2021/11/22 12:28:19;;;;;;;3.53;1.40;;;8.30;45.20;;;;;;5057137;28;20656;-83
2021/11/22 12:30:52;;;;;;;5.00;1.53;;;8.30;43.60;;;;;;5048044;28;20208;-83
2021/11/22 12:33:24;;;;;;;4.67;1.83;;;8.40;51.50;;;;;;5055948;28;20185;-84
2021/11/22 12:35:59;;;;;;;5.97;1.90;;;8.50;51.00;;;;;;5054867;28;20189;-85
2021/11/22 12:38:42;;;;;;;4.17;2.00;;;8.50;51.70;;;;;;5052814;28;20248;-83
2021/11/22 12:41:29;;;;;;;3.33;1.67;;;8.50;43.90;;;;;;5068472;28;20217;-83
2021/11/22 12:44:06;;;;;;;3.30;1.23;;;8.70;34.20;;;;;;5069352;28;20181;-83
2021/11/22 12:46:35;;;;;;;2.47;0.80;;;8.50;26.40;;;;;;5065362;28;20916;-83
2021/11/22 12:49:02;;;;;;;1.87;1.07;;;8.50;23.30;;;;;;5072684;28;20256;-84
2021/11/22 12:51:44;;;;;;;4.20;1.30;;;8.50;22.90;;;;;;5055391;28;20205;-83
2021/11/22 12:54:12;;;;;;;3.23;1.20;;;8.50;21.80;;;;;;5055429;28;20187;-82
2021/11/22 12:56:41;;;;;;;5.30;1.37;;;8.60;23.40;;;;;;5054412;28;20324;-82
2021/11/22 12:59:18;;;;;;;3.50;1.20;;;8.60;21.40;;;;;;5049875;28;20196;-82
2021/11/22 13:01:53;;;;;;;2.80;1.23;;;8.60;21.70;;;;;;5046983;28;20204;-83